sensor_id;sensor_type;location;lat;lon;timestamp;pressure;altitude;pressure_sealevel;temperature
65290;BMP180;51893;59.754;10.110;2023-02-02T00:01:52;100818.60;;;-5.60
65290;BMP180;51893;59.754;10.110;2023-02-02T00:04:30;100822.00;;;-5.60
65290;BMP180;51893;59.754;10.110;2023-02-02T00:06:59;100830.80;;;-5.60
65290;BMP180;51893;59.754;10.110;2023-02-02T00:09:30;100830.20;;;-5.66
65290;BMP180;51893;59.754;10.110;2023-02-02T00:12:00;100835.00;;;-5.60
65290;BMP180;51893;59.754;10.110;2023-02-02T00:14:32;100841.20;;;-5.60
65290;BMP180;51893;59.754;10.110;2023-02-02T00:17:00;100848.40;;;-5.60
65290;BMP180;51893;59.754;10.110;2023-02-02T00:19:29;100854.20;;;-5.70
65290;BMP180;51893;59.754;10.110;2023-02-02T00:21:58;100864.60;;;-5.72
65290;BMP180;51893;59.754;10.110;2023-02-02T00:24:27;100863.80;;;-5.70
65290;BMP180;51893;59.754;10.110;2023-02-02T00:26:58;100863.40;;;-5.64
65290;BMP180;51893;59.754;10.110;2023-02-02T00:29:29;100871.20;;;-5.64
65290;BMP180;51893;59.754;10.110;2023-02-02T00:31:57;100878.40;;;-5.60
65290;BMP180;51893;59.754;10.110;2023-02-02T00:34:25;100878.60;;;-5.60
65290;BMP180;51893;59.754;10.110;2023-02-02T00:36:54;100886.60;;;-5.70
65290;BMP180;51893;59.754;10.110;2023-02-02T00:39:24;100895.00;;;-5.80
65290;BMP180;51893;59.754;10.110;2023-02-02T00:41:56;100893.60;;;-5.90
65290;BMP180;51893;59.754;10.110;2023-02-02T00:44:24;100894.40;;;-6.00
65290;BMP180;51893;59.754;10.110;2023-02-02T00:47:11;100900.00;;;-6.10
65290;BMP180;51893;59.754;10.110;2023-02-02T00:49:39;100905.40;;;-6.30
65290;BMP180;51893;59.754;10.110;2023-02-02T00:52:07;100910.00;;;-6.32
65290;BMP180;51893;59.754;10.110;2023-02-02T00:54:35;100915.60;;;-6.40
65290;BMP180;51893;59.754;10.110;2023-02-02T00:57:03;100919.80;;;-6.40
65290;BMP180;51893;59.754;10.110;2023-02-02T00:59:31;100917.20;;;-6.50
65290;BMP180;51893;59.754;10.110;2023-02-02T01:02:00;100923.60;;;-6.48
65290;BMP180;51893;59.754;10.110;2023-02-02T01:04:30;100924.80;;;-6.48
65290;BMP180;51893;59.754;10.110;2023-02-02T01:06:57;100934.20;;;-6.50
65290;BMP180;51893;59.754;10.110;2023-02-02T01:09:25;100939.40;;;-6.50
65290;BMP180;51893;59.754;10.110;2023-02-02T01:11:57;100945.80;;;-6.50
65290;BMP180;51893;59.754;10.110;2023-02-02T01:14:25;100947.60;;;-6.40
65290;BMP180;51893;59.754;10.110;2023-02-02T01:16:55;100950.20;;;-6.30
65290;BMP180;51893;59.754;10.110;2023-02-02T01:19:24;100953.60;;;-6.30
65290;BMP180;51893;59.754;10.110;2023-02-02T01:21:52;100959.00;;;-6.20
65290;BMP180;51893;59.754;10.110;2023-02-02T01:24:21;100967.00;;;-6.20
65290;BMP180;51893;59.754;10.110;2023-02-02T01:26:49;100969.80;;;-6.20
65290;BMP180;51893;59.754;10.110;2023-02-02T01:29:17;100975.40;;;-6.22
65290;BMP180;51893;59.754;10.110;2023-02-02T01:31:45;100983.40;;;-6.30
65290;BMP180;51893;59.754;10.110;2023-02-02T01:34:13;100983.00;;;-6.30
65290;BMP180;51893;59.754;10.110;2023-02-02T01:36:41;100993.80;;;-6.30
65290;BMP180;51893;59.754;10.110;2023-02-02T01:39:09;101000.60;;;-6.40
65290;BMP180;51893;59.754;10.110;2023-02-02T01:41:39;101000.00;;;-6.40
65290;BMP180;51893;59.754;10.110;2023-02-02T01:47:44;101012.80;;;-6.70
65290;BMP180;51893;59.754;10.110;2023-02-02T01:50:16;101015.80;;;-6.70
65290;BMP180;51893;59.754;10.110;2023-02-02T01:52:48;101020.60;;;-6.70
65290;BMP180;51893;59.754;10.110;2023-02-02T01:55:22;101024.00;;;-6.70
65290;BMP180;51893;59.754;10.110;2023-02-02T01:57:59;101029.20;;;-6.70
65290;BMP180;51893;59.754;10.110;2023-02-02T02:00:29;101038.20;;;-6.82
65290;BMP180;51893;59.754;10.110;2023-02-02T02:03:07;101044.80;;;-6.80
65290;BMP180;51893;59.754;10.110;2023-02-02T02:05:59;101046.20;;;-6.70
65290;BMP180;51893;59.754;10.110;2023-02-02T02:08:36;101049.40;;;-6.70
65290;BMP180;51893;59.754;10.110;2023-02-02T02:11:05;101056.00;;;-6.70
65290;BMP180;51893;59.754;10.110;2023-02-02T02:13:38;101063.60;;;-6.74
65290;BMP180;51893;59.754;10.110;2023-02-02T02:24:00;101071.60;;;-7.00
65290;BMP180;51893;59.754;10.110;2023-02-02T02:33:46;101088.60;;;-6.74
65290;BMP180;51893;59.754;10.110;2023-02-02T02:36:21;101093.20;;;-6.80
65290;BMP180;51893;59.754;10.110;2023-02-02T02:39:12;101099.60;;;-6.80
65290;BMP180;51893;59.754;10.110;2023-02-02T02:41:49;101104.20;;;-6.90
65290;BMP180;51893;59.754;10.110;2023-02-02T02:44:21;101107.00;;;-6.90
65290;BMP180;51893;59.754;10.110;2023-02-02T02:46:50;101111.60;;;-6.80
65290;BMP180;51893;59.754;10.110;2023-02-02T02:49:18;101116.20;;;-6.80
65290;BMP180;51893;59.754;10.110;2023-02-02T02:51:52;101132.00;;;-6.88
65290;BMP180;51893;59.754;10.110;2023-02-02T02:54:27;101131.80;;;-6.90
65290;BMP180;51893;59.754;10.110;2023-02-02T03:00:34;101143.80;;;-6.98
65290;BMP180;51893;59.754;10.110;2023-02-02T03:06:27;101150.00;;;-6.86
65290;BMP180;51893;59.754;10.110;2023-02-02T03:09:04;101152.00;;;-6.90
65290;BMP180;51893;59.754;10.110;2023-02-02T03:11:34;101161.00;;;-6.90
65290;BMP180;51893;59.754;10.110;2023-02-02T03:14:03;101159.60;;;-6.90
65290;BMP180;51893;59.754;10.110;2023-02-02T03:16:31;101163.00;;;-7.00
65290;BMP180;51893;59.754;10.110;2023-02-02T03:18:59;101164.00;;;-7.10
65290;BMP180;51893;59.754;10.110;2023-02-02T03:21:27;101165.00;;;-7.10
65290;BMP180;51893;59.754;10.110;2023-02-02T03:23:55;101172.20;;;-7.00
65290;BMP180;51893;59.754;10.110;2023-02-02T03:26:26;101177.20;;;-7.00
65290;BMP180;51893;59.754;10.110;2023-02-02T03:28:56;101176.60;;;-7.00
65290;BMP180;51893;59.754;10.110;2023-02-02T03:31:25;101176.40;;;-7.08
65290;BMP180;51893;59.754;10.110;2023-02-02T03:33:55;101180.80;;;-7.10
65290;BMP180;51893;59.754;10.110;2023-02-02T03:36:24;101188.20;;;-7.26
65290;BMP180;51893;59.754;10.110;2023-02-02T03:38:52;101192.20;;;-7.30
65290;BMP180;51893;59.754;10.110;2023-02-02T03:41:19;101203.40;;;-7.40
65290;BMP180;51893;59.754;10.110;2023-02-02T03:43:47;101204.00;;;-7.34
65290;BMP180;51893;59.754;10.110;2023-02-02T03:46:16;101210.60;;;-7.30
65290;BMP180;51893;59.754;10.110;2023-02-02T03:48:44;101207.80;;;-7.20
65290;BMP180;51893;59.754;10.110;2023-02-02T03:51:14;101216.40;;;-7.10
65290;BMP180;51893;59.754;10.110;2023-02-02T03:53:43;101217.40;;;-7.10
65290;BMP180;51893;59.754;10.110;2023-02-02T03:56:12;101218.40;;;-7.00
65290;BMP180;51893;59.754;10.110;2023-02-02T03:58:41;101221.80;;;-7.00
65290;BMP180;51893;59.754;10.110;2023-02-02T04:01:13;101225.60;;;-7.00
65290;BMP180;51893;59.754;10.110;2023-02-02T04:03:42;101231.20;;;-7.10
65290;BMP180;51893;59.754;10.110;2023-02-02T04:06:10;101224.60;;;-7.10
65290;BMP180;51893;59.754;10.110;2023-02-02T04:08:37;101232.00;;;-7.10
65290;BMP180;51893;59.754;10.110;2023-02-02T04:11:10;101238.00;;;-7.10
65290;BMP180;51893;59.754;10.110;2023-02-02T04:13:39;101236.40;;;-7.10
65290;BMP180;51893;59.754;10.110;2023-02-02T04:55:05;101311.00;;;-7.64
65290;BMP180;51893;59.754;10.110;2023-02-02T04:57:34;101316.80;;;-7.40
65290;BMP180;51893;59.754;10.110;2023-02-02T05:00:03;101322.80;;;-7.40
65290;BMP180;51893;59.754;10.110;2023-02-02T05:02:34;101332.20;;;-7.40
65290;BMP180;51893;59.754;10.110;2023-02-02T05:05:06;101336.80;;;-7.30
65290;BMP180;51893;59.754;10.110;2023-02-02T05:07:35;101338.60;;;-7.30
65290;BMP180;51893;59.754;10.110;2023-02-02T05:10:04;101348.80;;;-7.30
65290;BMP180;51893;59.754;10.110;2023-02-02T05:12:32;101350.00;;;-7.30
65290;BMP180;51893;59.754;10.110;2023-02-02T05:15:00;101359.80;;;-7.30
65290;BMP180;51893;59.754;10.110;2023-02-02T05:17:31;101364.80;;;-7.40
65290;BMP180;51893;59.754;10.110;2023-02-02T05:19:59;101370.80;;;-7.44
65290;BMP180;51893;59.754;10.110;2023-02-02T05:22:29;101374.40;;;-7.50
65290;BMP180;51893;59.754;10.110;2023-02-02T05:24:57;101381.60;;;-7.50
65290;BMP180;51893;59.754;10.110;2023-02-02T05:27:25;101383.00;;;-7.56
65290;BMP180;51893;59.754;10.110;2023-02-02T05:29:53;101385.80;;;-7.50
65290;BMP180;51893;59.754;10.110;2023-02-02T05:32:22;101392.20;;;-7.54
65290;BMP180;51893;59.754;10.110;2023-02-02T05:34:50;101407.60;;;-7.60
65290;BMP180;51893;59.754;10.110;2023-02-02T05:37:17;101407.00;;;-7.70
65290;BMP180;51893;59.754;10.110;2023-02-02T05:39:45;101416.80;;;-7.70
65290;BMP180;51893;59.754;10.110;2023-02-02T05:42:13;101419.20;;;-7.60
65290;BMP180;51893;59.754;10.110;2023-02-02T05:44:41;101423.80;;;-7.50
65290;BMP180;51893;59.754;10.110;2023-02-02T05:47:09;101434.60;;;-7.46
65290;BMP180;51893;59.754;10.110;2023-02-02T05:49:37;101433.60;;;-7.40
65290;BMP180;51893;59.754;10.110;2023-02-02T05:52:16;101438.20;;;-7.40
65290;BMP180;51893;59.754;10.110;2023-02-02T05:54:44;101447.00;;;-7.40
65290;BMP180;51893;59.754;10.110;2023-02-02T05:57:13;101451.20;;;-7.44
65290;BMP180;51893;59.754;10.110;2023-02-02T05:59:42;101451.40;;;-7.50
65290;BMP180;51893;59.754;10.110;2023-02-02T06:02:10;101451.20;;;-7.50
65290;BMP180;51893;59.754;10.110;2023-02-02T06:04:38;101452.80;;;-7.48
65290;BMP180;51893;59.754;10.110;2023-02-02T06:07:07;101456.20;;;-7.50
65290;BMP180;51893;59.754;10.110;2023-02-02T06:09:38;101453.20;;;-7.42
65290;BMP180;51893;59.754;10.110;2023-02-02T06:12:07;101463.00;;;-7.50
65290;BMP180;51893;59.754;10.110;2023-02-02T06:14:35;101469.80;;;-7.50
65290;BMP180;51893;59.754;10.110;2023-02-02T06:17:03;101476.80;;;-7.50
65290;BMP180;51893;59.754;10.110;2023-02-02T06:19:35;101470.40;;;-7.50
65290;BMP180;51893;59.754;10.110;2023-02-02T06:22:03;101471.00;;;-7.56
65290;BMP180;51893;59.754;10.110;2023-02-02T06:24:31;101486.20;;;-7.70
65290;BMP180;51893;59.754;10.110;2023-02-02T06:27:00;101489.60;;;-7.70
65290;BMP180;51893;59.754;10.110;2023-02-02T06:29:28;101501.00;;;-7.70
65290;BMP180;51893;59.754;10.110;2023-02-02T06:31:56;101504.60;;;-7.70
65290;BMP180;51893;59.754;10.110;2023-02-02T06:34:25;101518.00;;;-7.80
65290;BMP180;51893;59.754;10.110;2023-02-02T06:36:52;101524.60;;;-7.80
65290;BMP180;51893;59.754;10.110;2023-02-02T06:39:20;101532.20;;;-7.80
65290;BMP180;51893;59.754;10.110;2023-02-02T06:41:55;101539.20;;;-7.88
65290;BMP180;51893;59.754;10.110;2023-02-02T06:44:23;101542.20;;;-7.90
65290;BMP180;51893;59.754;10.110;2023-02-02T06:46:51;101536.60;;;-7.90
65290;BMP180;51893;59.754;10.110;2023-02-02T06:49:19;101541.60;;;-7.90
65290;BMP180;51893;59.754;10.110;2023-02-02T06:51:48;101544.00;;;-7.90
65290;BMP180;51893;59.754;10.110;2023-02-02T06:54:16;101551.20;;;-7.94
65290;BMP180;51893;59.754;10.110;2023-02-02T06:56:44;101555.60;;;-8.00
65290;BMP180;51893;59.754;10.110;2023-02-02T06:59:12;101560.00;;;-8.10
65290;BMP180;51893;59.754;10.110;2023-02-02T07:01:39;101566.80;;;-8.14
65290;BMP180;51893;59.754;10.110;2023-02-02T07:04:07;101563.80;;;-8.18
65290;BMP180;51893;59.754;10.110;2023-02-02T07:06:38;101567.00;;;-8.20
65290;BMP180;51893;59.754;10.110;2023-02-02T07:09:06;101561.80;;;-8.20
65290;BMP180;51893;59.754;10.110;2023-02-02T07:11:34;101563.80;;;-8.20
65290;BMP180;51893;59.754;10.110;2023-02-02T07:14:12;101564.40;;;-8.10
65290;BMP180;51893;59.754;10.110;2023-02-02T07:16:40;101573.80;;;-8.00
65290;BMP180;51893;59.754;10.110;2023-02-02T07:19:10;101575.20;;;-8.10
65290;BMP180;51893;59.754;10.110;2023-02-02T07:21:39;101578.80;;;-8.20
65290;BMP180;51893;59.754;10.110;2023-02-02T07:24:07;101584.20;;;-8.20
65290;BMP180;51893;59.754;10.110;2023-02-02T07:26:35;101594.60;;;-8.32
65290;BMP180;51893;59.754;10.110;2023-02-02T07:29:04;101595.80;;;-8.40
65290;BMP180;51893;59.754;10.110;2023-02-02T07:31:32;101600.20;;;-8.30
65290;BMP180;51893;59.754;10.110;2023-02-02T07:34:03;101601.80;;;-8.30
65290;BMP180;51893;59.754;10.110;2023-02-02T07:36:31;101610.80;;;-8.20
65290;BMP180;51893;59.754;10.110;2023-02-02T07:39:00;101615.00;;;-8.20
65290;BMP180;51893;59.754;10.110;2023-02-02T07:41:34;101621.80;;;-8.20
65290;BMP180;51893;59.754;10.110;2023-02-02T07:44:04;101622.60;;;-8.10
65290;BMP180;51893;59.754;10.110;2023-02-02T07:46:32;101624.00;;;-8.20
65290;BMP180;51893;59.754;10.110;2023-02-02T07:49:00;101624.80;;;-8.28
65290;BMP180;51893;59.754;10.110;2023-02-02T07:51:28;101632.80;;;-8.30
65290;BMP180;51893;59.754;10.110;2023-02-02T07:53:56;101639.20;;;-8.40
65290;BMP180;51893;59.754;10.110;2023-02-02T07:56:27;101640.20;;;-8.50
65290;BMP180;51893;59.754;10.110;2023-02-02T07:58:56;101642.40;;;-8.50
65290;BMP180;51893;59.754;10.110;2023-02-02T08:01:26;101641.80;;;-8.50
65290;BMP180;51893;59.754;10.110;2023-02-02T08:03:58;101649.60;;;-8.40
65290;BMP180;51893;59.754;10.110;2023-02-02T08:06:34;101650.00;;;-8.40
65290;BMP180;51893;59.754;10.110;2023-02-02T08:09:05;101650.20;;;-8.30
65290;BMP180;51893;59.754;10.110;2023-02-02T08:11:38;101649.80;;;-8.30
65290;BMP180;51893;59.754;10.110;2023-02-02T08:14:06;101652.40;;;-8.20
65290;BMP180;51893;59.754;10.110;2023-02-02T08:16:35;101663.80;;;-8.20
65290;BMP180;51893;59.754;10.110;2023-02-02T08:19:10;101669.20;;;-8.20
65290;BMP180;51893;59.754;10.110;2023-02-02T08:21:38;101675.40;;;-8.10
65290;BMP180;51893;59.754;10.110;2023-02-02T08:24:06;101681.60;;;-8.10
65290;BMP180;51893;59.754;10.110;2023-02-02T08:26:34;101691.00;;;-8.20
65290;BMP180;51893;59.754;10.110;2023-02-02T08:29:06;101697.20;;;-8.20
65290;BMP180;51893;59.754;10.110;2023-02-02T08:31:39;101701.40;;;-8.20
65290;BMP180;51893;59.754;10.110;2023-02-02T08:34:11;101701.80;;;-8.20
65290;BMP180;51893;59.754;10.110;2023-02-02T08:36:41;101712.80;;;-8.20
65290;BMP180;51893;59.754;10.110;2023-02-02T08:39:12;101709.60;;;-8.30
65290;BMP180;51893;59.754;10.110;2023-02-02T08:41:41;101722.00;;;-8.30
65290;BMP180;51893;59.754;10.110;2023-02-02T08:44:14;101721.60;;;-8.38
65290;BMP180;51893;59.754;10.110;2023-02-02T08:46:42;101721.60;;;-8.40
65290;BMP180;51893;59.754;10.110;2023-02-02T08:49:11;101726.40;;;-8.40
65290;BMP180;51893;59.754;10.110;2023-02-02T08:51:42;101733.80;;;-8.38
65290;BMP180;51893;59.754;10.110;2023-02-02T08:54:12;101739.00;;;-8.30
65290;BMP180;51893;59.754;10.110;2023-02-02T08:56:40;101740.00;;;-8.30
65290;BMP180;51893;59.754;10.110;2023-02-02T08:59:08;101738.00;;;-8.32
65290;BMP180;51893;59.754;10.110;2023-02-02T09:01:37;101736.80;;;-8.30
65290;BMP180;51893;59.754;10.110;2023-02-02T09:04:13;101735.40;;;-8.30
65290;BMP180;51893;59.754;10.110;2023-02-02T09:06:44;101746.00;;;-8.20
65290;BMP180;51893;59.754;10.110;2023-02-02T09:09:15;101745.60;;;-8.10
65290;BMP180;51893;59.754;10.110;2023-02-02T09:11:45;101747.00;;;-7.96
65290;BMP180;51893;59.754;10.110;2023-02-02T09:14:14;101740.20;;;-7.80
65290;BMP180;51893;59.754;10.110;2023-02-02T09:16:43;101751.80;;;-7.68
65290;BMP180;51893;59.754;10.110;2023-02-02T09:19:11;101749.60;;;-7.50
65290;BMP180;51893;59.754;10.110;2023-02-02T09:21:40;101748.00;;;-7.40
65290;BMP180;51893;59.754;10.110;2023-02-02T09:24:11;101746.20;;;-7.30
65290;BMP180;51893;59.754;10.110;2023-02-02T09:26:42;101747.40;;;-7.20
65290;BMP180;51893;59.754;10.110;2023-02-02T09:29:13;101754.40;;;-7.10
65290;BMP180;51893;59.754;10.110;2023-02-02T09:31:42;101748.60;;;-7.00
65290;BMP180;51893;59.754;10.110;2023-02-02T09:34:13;101743.60;;;-6.84
65290;BMP180;51893;59.754;10.110;2023-02-02T09:36:43;101732.40;;;-6.80
65290;BMP180;51893;59.754;10.110;2023-02-02T09:39:12;101732.60;;;-6.72
65290;BMP180;51893;59.754;10.110;2023-02-02T09:42:57;101730.80;;;-6.70
65290;BMP180;51893;59.754;10.110;2023-02-02T09:45:44;101734.40;;;-6.60
65290;BMP180;51893;59.754;10.110;2023-02-02T09:48:56;101730.00;;;-6.58
65290;BMP180;51893;59.754;10.110;2023-02-02T09:51:34;101737.80;;;-6.60
65290;BMP180;51893;59.754;10.110;2023-02-02T09:54:17;101745.00;;;-6.60
65290;BMP180;51893;59.754;10.110;2023-02-02T09:56:51;101755.80;;;-6.50
65290;BMP180;51893;59.754;10.110;2023-02-02T09:59:30;101761.40;;;-6.58
65290;BMP180;51893;59.754;10.110;2023-02-02T10:02:12;101763.20;;;-6.48
65290;BMP180;51893;59.754;10.110;2023-02-02T10:04:49;101765.60;;;-6.50
65290;BMP180;51893;59.754;10.110;2023-02-02T10:07:26;101771.80;;;-6.40
65290;BMP180;51893;59.754;10.110;2023-02-02T10:10:32;101775.00;;;-6.38
65290;BMP180;51893;59.754;10.110;2023-02-02T10:13:15;101779.40;;;-6.30
65290;BMP180;51893;59.754;10.110;2023-02-02T10:16:14;101775.40;;;-6.30
65290;BMP180;51893;59.754;10.110;2023-02-02T10:18:55;101780.40;;;-6.32
65290;BMP180;51893;59.754;10.110;2023-02-02T10:24:25;101784.40;;;-6.26
65290;BMP180;51893;59.754;10.110;2023-02-02T10:27:01;101780.20;;;-6.10
65290;BMP180;51893;59.754;10.110;2023-02-02T10:30:00;101784.00;;;-5.90
65290;BMP180;51893;59.754;10.110;2023-02-02T10:32:58;101793.80;;;-6.00
65290;BMP180;51893;59.754;10.110;2023-02-02T10:35:38;101794.60;;;-5.86
65290;BMP180;51893;59.754;10.110;2023-02-02T10:38:37;101790.00;;;-5.58
65290;BMP180;51893;59.754;10.110;2023-02-02T10:41:29;101786.20;;;-5.30
65290;BMP180;51893;59.754;10.110;2023-02-02T10:44:12;101781.00;;;-5.40
65290;BMP180;51893;59.754;10.110;2023-02-02T10:46:53;101776.60;;;-5.60
65290;BMP180;51893;59.754;10.110;2023-02-02T10:49:35;101774.80;;;-5.60
65290;BMP180;51893;59.754;10.110;2023-02-02T11:00:42;101802.60;;;-5.50
65290;BMP180;51893;59.754;10.110;2023-02-02T11:03:16;101802.60;;;-5.40
65290;BMP180;51893;59.754;10.110;2023-02-02T11:05:46;101801.60;;;-5.30
65290;BMP180;51893;59.754;10.110;2023-02-02T11:08:37;101801.00;;;-5.30
65290;BMP180;51893;59.754;10.110;2023-02-02T11:11:20;101797.80;;;-5.20
65290;BMP180;51893;59.754;10.110;2023-02-02T11:13:56;101790.00;;;-5.00
65290;BMP180;51893;59.754;10.110;2023-02-02T11:16:31;101788.60;;;-4.80
65290;BMP180;51893;59.754;10.110;2023-02-02T11:21:47;101775.80;;;-4.50
65290;BMP180;51893;59.754;10.110;2023-02-02T11:24:31;101777.40;;;-4.30
65290;BMP180;51893;59.754;10.110;2023-02-02T11:27:12;101779.80;;;-4.30
65290;BMP180;51893;59.754;10.110;2023-02-02T11:29:47;101777.80;;;-4.28
65290;BMP180;51893;59.754;10.110;2023-02-02T11:37:34;101775.00;;;-4.10
65290;BMP180;51893;59.754;10.110;2023-02-02T11:40:36;101764.60;;;-4.00
65290;BMP180;51893;59.754;10.110;2023-02-02T11:43:22;101767.00;;;-3.80
65290;BMP180;51893;59.754;10.110;2023-02-02T11:45:58;101761.60;;;-3.60
65290;BMP180;51893;59.754;10.110;2023-02-02T11:48:37;101771.80;;;-3.50
65290;BMP180;51893;59.754;10.110;2023-02-02T11:51:08;101766.40;;;-3.42
65290;BMP180;51893;59.754;10.110;2023-02-02T11:53:48;101770.40;;;-3.40
65290;BMP180;51893;59.754;10.110;2023-02-02T11:56:23;101776.40;;;-3.40
65290;BMP180;51893;59.754;10.110;2023-02-02T11:58:55;101771.40;;;-3.30
65290;BMP180;51893;59.754;10.110;2023-02-02T12:01:35;101764.80;;;-3.10
65290;BMP180;51893;59.754;10.110;2023-02-02T12:06:40;101768.60;;;-2.80
65290;BMP180;51893;59.754;10.110;2023-02-02T12:09:25;101767.20;;;-2.70
65290;BMP180;51893;59.754;10.110;2023-02-02T12:12:37;101765.40;;;-2.50
65290;BMP180;51893;59.754;10.110;2023-02-02T12:15:31;101772.80;;;-2.54
65290;BMP180;51893;59.754;10.110;2023-02-02T12:18:30;101780.40;;;-2.52
65290;BMP180;51893;59.754;10.110;2023-02-02T12:21:19;101786.20;;;-2.70
65290;BMP180;51893;59.754;10.110;2023-02-02T12:30:38;101810.80;;;-3.40
65290;BMP180;51893;59.754;10.110;2023-02-02T12:33:24;101817.40;;;-3.40
65290;BMP180;51893;59.754;10.110;2023-02-02T12:36:59;101820.40;;;-3.44
65290;BMP180;51893;59.754;10.110;2023-02-02T12:39:57;101822.00;;;-3.62
65290;BMP180;51893;59.754;10.110;2023-02-02T12:45:33;101828.20;;;-3.80
65290;BMP180;51893;59.754;10.110;2023-02-02T12:51:42;101824.80;;;-4.00
65290;BMP180;51893;59.754;10.110;2023-02-02T12:54:47;101828.80;;;-3.90
65290;BMP180;51893;59.754;10.110;2023-02-02T12:58:18;101827.80;;;-3.92
65290;BMP180;51893;59.754;10.110;2023-02-02T13:01:12;101840.00;;;-3.98
65290;BMP180;51893;59.754;10.110;2023-02-02T13:04:31;101835.40;;;-4.20
65290;BMP180;51893;59.754;10.110;2023-02-02T13:07:54;101836.60;;;-4.50
65290;BMP180;51893;59.754;10.110;2023-02-02T13:10:29;101837.60;;;-4.50
65290;BMP180;51893;59.754;10.110;2023-02-02T13:13:12;101837.20;;;-4.50
65290;BMP180;51893;59.754;10.110;2023-02-02T13:15:50;101832.60;;;-4.50
65290;BMP180;51893;59.754;10.110;2023-02-02T13:18:40;101833.80;;;-4.50
65290;BMP180;51893;59.754;10.110;2023-02-02T13:21:20;101826.60;;;-4.50
65290;BMP180;51893;59.754;10.110;2023-02-02T13:23:56;101837.00;;;-4.50
65290;BMP180;51893;59.754;10.110;2023-02-02T13:26:40;101835.40;;;-4.56
65290;BMP180;51893;59.754;10.110;2023-02-02T13:31:56;101849.00;;;-4.80
65290;BMP180;51893;59.754;10.110;2023-02-02T13:34:34;101850.60;;;-4.70
65290;BMP180;51893;59.754;10.110;2023-02-02T13:40:26;101843.80;;;-4.58
65290;BMP180;51893;59.754;10.110;2023-02-02T13:49:28;101852.40;;;-4.22
65290;BMP180;51893;59.754;10.110;2023-02-02T14:01:11;101855.40;;;-4.00
65290;BMP180;51893;59.754;10.110;2023-02-02T14:03:44;101849.80;;;-4.00
65290;BMP180;51893;59.754;10.110;2023-02-02T14:06:23;101859.20;;;-4.00
65290;BMP180;51893;59.754;10.110;2023-02-02T14:08:59;101860.40;;;-4.00
65290;BMP180;51893;59.754;10.110;2023-02-02T14:11:38;101870.20;;;-4.06
65290;BMP180;51893;59.754;10.110;2023-02-02T14:14:21;101873.00;;;-4.08
65290;BMP180;51893;59.754;10.110;2023-02-02T14:24:50;101884.20;;;-4.32
65290;BMP180;51893;59.754;10.110;2023-02-02T14:29:59;101876.60;;;-4.40
65290;BMP180;51893;59.754;10.110;2023-02-02T14:32:31;101867.80;;;-4.40
65290;BMP180;51893;59.754;10.110;2023-02-02T14:41:25;101871.80;;;-4.40
65290;BMP180;51893;59.754;10.110;2023-02-02T14:44:17;101876.20;;;-4.30
65290;BMP180;51893;59.754;10.110;2023-02-02T14:46:45;101881.00;;;-4.30
65290;BMP180;51893;59.754;10.110;2023-02-02T14:49:22;101889.00;;;-4.30
65290;BMP180;51893;59.754;10.110;2023-02-02T14:51:59;101886.20;;;-4.22
65290;BMP180;51893;59.754;10.110;2023-02-02T14:54:34;101879.40;;;-4.10
65290;BMP180;51893;59.754;10.110;2023-02-02T14:57:26;101878.40;;;-4.10
65290;BMP180;51893;59.754;10.110;2023-02-02T14:59:56;101881.20;;;-4.10
65290;BMP180;51893;59.754;10.110;2023-02-02T15:08:24;101883.60;;;-4.10
65290;BMP180;51893;59.754;10.110;2023-02-02T15:13:28;101885.20;;;-4.20
65290;BMP180;51893;59.754;10.110;2023-02-02T15:16:28;101887.20;;;-4.20
65290;BMP180;51893;59.754;10.110;2023-02-02T15:19:19;101884.40;;;-4.30
65290;BMP180;51893;59.754;10.110;2023-02-02T15:21:53;101883.20;;;-4.30
65290;BMP180;51893;59.754;10.110;2023-02-02T15:24:27;101882.00;;;-4.30
65290;BMP180;51893;59.754;10.110;2023-02-02T15:26:59;101886.40;;;-4.30
65290;BMP180;51893;59.754;10.110;2023-02-02T15:29:54;101885.60;;;-4.30
65290;BMP180;51893;59.754;10.110;2023-02-02T15:32:26;101886.20;;;-4.40
65290;BMP180;51893;59.754;10.110;2023-02-02T15:35:03;101892.80;;;-4.50
65290;BMP180;51893;59.754;10.110;2023-02-02T15:37:36;101894.20;;;-4.60
65290;BMP180;51893;59.754;10.110;2023-02-02T15:40:15;101888.60;;;-4.60
65290;BMP180;51893;59.754;10.110;2023-02-02T15:42:58;101886.00;;;-4.60
65290;BMP180;51893;59.754;10.110;2023-02-02T15:45:52;101878.20;;;-4.50
65290;BMP180;51893;59.754;10.110;2023-02-02T15:48:30;101871.80;;;-4.40
65290;BMP180;51893;59.754;10.110;2023-02-02T15:51:03;101869.60;;;-4.30
65290;BMP180;51893;59.754;10.110;2023-02-02T15:53:46;101877.60;;;-4.40
65290;BMP180;51893;59.754;10.110;2023-02-02T15:56:28;101881.80;;;-4.44
65290;BMP180;51893;59.754;10.110;2023-02-02T15:58:59;101885.60;;;-4.44
65290;BMP180;51893;59.754;10.110;2023-02-02T16:01:31;101885.80;;;-4.40
65290;BMP180;51893;59.754;10.110;2023-02-02T16:04:26;101890.80;;;-4.34
65290;BMP180;51893;59.754;10.110;2023-02-02T16:06:57;101887.40;;;-4.40
65290;BMP180;51893;59.754;10.110;2023-02-02T16:09:32;101888.80;;;-4.58
65290;BMP180;51893;59.754;10.110;2023-02-02T16:12:02;101884.40;;;-4.70
65290;BMP180;51893;59.754;10.110;2023-02-02T16:14:37;101886.00;;;-4.76
65290;BMP180;51893;59.754;10.110;2023-02-02T16:17:22;101891.40;;;-4.80
65290;BMP180;51893;59.754;10.110;2023-02-02T16:20:05;101884.60;;;-4.90
65290;BMP180;51893;59.754;10.110;2023-02-02T16:22:39;101889.00;;;-4.90
65290;BMP180;51893;59.754;10.110;2023-02-02T16:25:14;101889.80;;;-5.00
65290;BMP180;51893;59.754;10.110;2023-02-02T16:27:46;101884.20;;;-5.10
65290;BMP180;51893;59.754;10.110;2023-02-02T16:32:56;101882.60;;;-5.24
65290;BMP180;51893;59.754;10.110;2023-02-02T16:35:37;101875.20;;;-5.20
65290;BMP180;51893;59.754;10.110;2023-02-02T16:38:28;101863.40;;;-5.20
65290;BMP180;51893;59.754;10.110;2023-02-02T16:41:08;101858.20;;;-5.20
65290;BMP180;51893;59.754;10.110;2023-02-02T16:43:39;101851.00;;;-5.18
65290;BMP180;51893;59.754;10.110;2023-02-02T16:46:12;101860.40;;;-5.10
65290;BMP180;51893;59.754;10.110;2023-02-02T16:48:53;101866.00;;;-5.00
65290;BMP180;51893;59.754;10.110;2023-02-02T16:51:26;101883.40;;;-4.90
65290;BMP180;51893;59.754;10.110;2023-02-02T16:54:20;101888.00;;;-4.90
65290;BMP180;51893;59.754;10.110;2023-02-02T16:56:59;101895.00;;;-4.84